sensor_id;sensor_type;location;lat;lon;timestamp;noise_LAeq;noise_LA_min;noise_LA_max;noise_LA01;noise_LA95
40465;Laerm;30489;48.982;8.394;2022-07-21T00:00:48;40.33;38.21;46.15;;
40465;Laerm;30489;48.982;8.394;2022-07-21T00:02:58;40.40;38.37;42.16;;
40465;Laerm;30489;48.982;8.394;2022-07-21T00:05:09;40.36;38.52;42.16;;
40465;Laerm;30489;48.982;8.394;2022-07-21T00:07:19;40.34;38.74;42.47;;
40465;Laerm;30489;48.982;8.394;2022-07-21T00:09:29;40.45;38.52;42.76;;
40465;Laerm;30489;48.982;8.394;2022-07-21T00:11:39;40.39;38.37;42.71;;
40465;Laerm;30489;48.982;8.394;2022-07-21T00:13:50;40.30;38.21;41.82;;
40465;Laerm;30489;48.982;8.394;2022-07-21T00:16:00;40.25;38.67;41.68;;
40465;Laerm;30489;48.982;8.394;2022-07-21T00:18:11;40.24;38.67;41.75;;
40465;Laerm;30489;48.982;8.394;2022-07-21T00:20:21;40.29;38.21;41.68;;
40465;Laerm;30489;48.982;8.394;2022-07-21T00:22:31;40.32;38.05;41.68;;
40465;Laerm;30489;48.982;8.394;2022-07-21T00:24:42;40.37;38.81;42.16;;
40465;Laerm;30489;48.982;8.394;2022-07-21T00:26:52;40.35;38.21;41.96;;
40465;Laerm;30489;48.982;8.394;2022-07-21T00:29:02;40.43;38.52;41.96;;
40465;Laerm;30489;48.982;8.394;2022-07-21T00:31:13;40.49;38.21;42.16;;
40465;Laerm;30489;48.982;8.394;2022-07-21T00:33:23;40.39;38.37;46.93;;
40465;Laerm;30489;48.982;8.394;2022-07-21T00:35:33;40.40;38.37;42.16;;
40465;Laerm;30489;48.982;8.394;2022-07-21T00:37:43;40.54;38.37;42.41;;
40465;Laerm;30489;48.982;8.394;2022-07-21T00:39:54;40.51;38.67;48.58;;
40465;Laerm;30489;48.982;8.394;2022-07-21T00:42:04;40.44;38.52;42.09;;
40465;Laerm;30489;48.982;8.394;2022-07-21T00:44:21;40.50;38.21;42.29;;
40465;Laerm;30489;48.982;8.394;2022-07-21T00:46:32;40.39;38.37;42.29;;
40465;Laerm;30489;48.982;8.394;2022-07-21T00:48:42;40.38;38.37;41.96;;
40465;Laerm;30489;48.982;8.394;2022-07-21T00:50:52;40.48;38.37;42.35;;
40465;Laerm;30489;48.982;8.394;2022-07-21T00:53:02;40.40;38.37;42.35;;
40465;Laerm;30489;48.982;8.394;2022-07-21T00:55:14;40.34;37.52;42.47;;
40465;Laerm;30489;48.982;8.394;2022-07-21T00:57:25;40.55;38.52;42.93;;
40465;Laerm;30489;48.982;8.394;2022-07-21T00:59:35;40.38;38.37;42.16;;
40465;Laerm;30489;48.982;8.394;2022-07-21T01:01:45;42.32;38.21;73.45;;
40465;Laerm;30489;48.982;8.394;2022-07-21T01:03:56;40.41;38.37;42.47;;
40465;Laerm;30489;48.982;8.394;2022-07-21T01:06:07;40.42;38.21;42.59;;
40465;Laerm;30489;48.982;8.394;2022-07-21T01:08:17;40.56;38.37;42.76;;
40465;Laerm;30489;48.982;8.394;2022-07-21T01:10:29;40.42;38.21;42.65;;
40465;Laerm;30489;48.982;8.394;2022-07-21T01:12:40;40.47;38.05;42.35;;
40465;Laerm;30489;48.982;8.394;2022-07-21T01:14:50;40.60;38.52;44.20;;
40465;Laerm;30489;48.982;8.394;2022-07-21T01:17:02;40.56;37.88;43.58;;
40465;Laerm;30489;48.982;8.394;2022-07-21T01:19:12;40.49;38.37;42.59;;
40465;Laerm;30489;48.982;8.394;2022-07-21T01:21:27;40.62;38.52;42.71;;
40465;Laerm;30489;48.982;8.394;2022-07-21T01:23:37;40.64;38.52;42.59;;
40465;Laerm;30489;48.982;8.394;2022-07-21T01:25:48;40.30;38.05;42.16;;
40465;Laerm;30489;48.982;8.394;2022-07-21T01:27:59;40.46;38.05;42.88;;
40465;Laerm;30489;48.982;8.394;2022-07-21T01:30:09;40.55;38.37;42.65;;
40465;Laerm;30489;48.982;8.394;2022-07-21T01:32:20;40.37;38.02;42.53;;
40465;Laerm;30489;48.982;8.394;2022-07-21T01:34:30;40.37;38.05;42.71;;
40465;Laerm;30489;48.982;8.394;2022-07-21T01:36:40;40.27;37.52;42.53;;
40465;Laerm;30489;48.982;8.394;2022-07-21T01:38:51;40.32;38.21;42.35;;
40465;Laerm;30489;48.982;8.394;2022-07-21T01:41:20;40.37;37.88;42.59;;
40465;Laerm;30489;48.982;8.394;2022-07-21T01:43:39;40.42;38.21;42.29;;
40465;Laerm;30489;48.982;8.394;2022-07-21T01:45:49;40.60;38.32;42.71;;
40465;Laerm;30489;48.982;8.394;2022-07-21T01:47:59;40.39;37.52;42.59;;
40465;Laerm;30489;48.982;8.394;2022-07-21T01:50:10;40.45;38.21;42.29;;
40465;Laerm;30489;48.982;8.394;2022-07-21T01:52:20;40.42;36.91;42.59;;
40465;Laerm;30489;48.982;8.394;2022-07-21T01:54:30;40.50;38.21;44.69;;
40465;Laerm;30489;48.982;8.394;2022-07-21T01:56:40;40.48;37.88;42.82;;
40465;Laerm;30489;48.982;8.394;2022-07-21T01:58:53;40.43;38.21;43.68;;
40465;Laerm;30489;48.982;8.394;2022-07-21T02:01:03;40.51;37.70;42.88;;
40465;Laerm;30489;48.982;8.394;2022-07-21T02:03:14;40.35;38.05;43.19;;
40465;Laerm;30489;48.982;8.394;2022-07-21T02:05:24;40.34;37.88;42.71;;
40465;Laerm;30489;48.982;8.394;2022-07-21T02:07:34;40.49;38.05;47.61;;
40465;Laerm;30489;48.982;8.394;2022-07-21T02:09:44;40.61;37.88;46.08;;
40465;Laerm;30489;48.982;8.394;2022-07-21T02:11:55;40.57;37.88;42.88;;
40465;Laerm;30489;48.982;8.394;2022-07-21T02:14:05;40.53;38.05;43.49;;
40465;Laerm;30489;48.982;8.394;2022-07-21T02:16:15;40.64;38.05;42.88;;
40465;Laerm;30489;48.982;8.394;2022-07-21T02:18:26;40.59;37.88;44.80;;
40465;Laerm;30489;48.982;8.394;2022-07-21T02:20:36;40.42;37.70;42.71;;
40465;Laerm;30489;48.982;8.394;2022-07-21T02:22:46;40.42;38.05;42.53;;
40465;Laerm;30489;48.982;8.394;2022-07-21T02:24:57;40.58;37.70;42.82;;
40465;Laerm;30489;48.982;8.394;2022-07-21T02:27:07;40.46;37.12;43.14;;
40465;Laerm;30489;48.982;8.394;2022-07-21T02:29:17;40.27;37.88;42.53;;
40465;Laerm;30489;48.982;8.394;2022-07-21T02:31:27;40.15;37.88;41.89;;
40465;Laerm;30489;48.982;8.394;2022-07-21T02:33:38;40.19;37.70;42.19;;
40465;Laerm;30489;48.982;8.394;2022-07-21T02:35:48;40.13;38.05;42.09;;
40465;Laerm;30489;48.982;8.394;2022-07-21T02:37:58;40.13;37.88;42.35;;
40465;Laerm;30489;48.982;8.394;2022-07-21T02:40:09;40.00;37.32;43.54;;
40465;Laerm;30489;48.982;8.394;2022-07-21T02:42:19;40.12;37.70;42.35;;
40465;Laerm;30489;48.982;8.394;2022-07-21T02:44:29;40.20;37.88;42.71;;
40465;Laerm;30489;48.982;8.394;2022-07-21T02:46:40;40.05;37.70;42.16;;
40465;Laerm;30489;48.982;8.394;2022-07-21T02:48:51;40.07;37.32;42.16;;
40465;Laerm;30489;48.982;8.394;2022-07-21T02:51:01;40.14;37.32;42.29;;
40465;Laerm;30489;48.982;8.394;2022-07-21T02:53:12;40.23;37.70;42.41;;
40465;Laerm;30489;48.982;8.394;2022-07-21T02:55:23;40.21;37.52;42.29;;
40465;Laerm;30489;48.982;8.394;2022-07-21T02:57:33;40.23;37.32;42.53;;
40465;Laerm;30489;48.982;8.394;2022-07-21T02:59:44;40.37;37.52;42.59;;
40465;Laerm;30489;48.982;8.394;2022-07-21T03:01:55;40.15;37.70;42.16;;
40465;Laerm;30489;48.982;8.394;2022-07-21T03:04:05;40.16;37.70;41.96;;
40465;Laerm;30489;48.982;8.394;2022-07-21T03:06:15;40.10;37.52;42.82;;
40465;Laerm;30489;48.982;8.394;2022-07-21T03:08:26;40.23;37.52;43.34;;
40465;Laerm;30489;48.982;8.394;2022-07-21T03:10:37;40.43;37.88;42.82;;
40465;Laerm;30489;48.982;8.394;2022-07-21T03:12:47;40.25;37.88;42.98;;
40465;Laerm;30489;48.982;8.394;2022-07-21T03:14:57;40.08;37.88;42.93;;
40465;Laerm;30489;48.982;8.394;2022-07-21T03:17:08;40.12;37.52;42.93;;
40465;Laerm;30489;48.982;8.394;2022-07-21T03:19:18;40.16;37.52;42.65;;
40465;Laerm;30489;48.982;8.394;2022-07-21T03:21:28;40.13;38.05;42.65;;
40465;Laerm;30489;48.982;8.394;2022-07-21T03:23:38;40.08;37.70;42.29;;
40465;Laerm;30489;48.982;8.394;2022-07-21T03:25:48;40.06;37.52;43.19;;
40465;Laerm;30489;48.982;8.394;2022-07-21T03:27:59;40.15;37.70;42.59;;
40465;Laerm;30489;48.982;8.394;2022-07-21T03:30:10;40.17;37.70;42.76;;
40465;Laerm;30489;48.982;8.394;2022-07-21T03:32:21;40.14;37.52;42.41;;
40465;Laerm;30489;48.982;8.394;2022-07-21T03:34:31;40.11;37.88;42.88;;
40465;Laerm;30489;48.982;8.394;2022-07-21T03:36:41;40.12;37.88;43.54;;
40465;Laerm;30489;48.982;8.394;2022-07-21T03:38:51;40.14;38.05;44.19;;
40465;Laerm;30489;48.982;8.394;2022-07-21T03:41:01;40.21;38.18;42.09;;
40465;Laerm;30489;48.982;8.394;2022-07-21T03:43:12;40.21;37.70;48.78;;
40465;Laerm;30489;48.982;8.394;2022-07-21T03:45:22;40.06;38.05;48.46;;
40465;Laerm;30489;48.982;8.394;2022-07-21T03:47:33;40.23;37.87;43.99;;
40465;Laerm;30489;48.982;8.394;2022-07-21T03:49:43;40.20;38.21;46.62;;
40465;Laerm;30489;48.982;8.394;2022-07-21T03:51:53;40.14;38.21;51.23;;
40465;Laerm;30489;48.982;8.394;2022-07-21T03:54:04;40.22;37.88;43.68;;
40465;Laerm;30489;48.982;8.394;2022-07-21T03:56:14;40.31;37.70;42.41;;
40465;Laerm;30489;48.982;8.394;2022-07-21T03:58:24;40.29;37.88;44.03;;
40465;Laerm;30489;48.982;8.394;2022-07-21T04:00:36;40.34;37.88;42.47;;
40465;Laerm;30489;48.982;8.394;2022-07-21T04:02:46;40.26;37.88;43.39;;
40465;Laerm;30489;48.982;8.394;2022-07-21T04:04:57;40.17;37.88;42.22;;
40465;Laerm;30489;48.982;8.394;2022-07-21T04:07:07;40.18;37.70;42.47;;
40465;Laerm;30489;48.982;8.394;2022-07-21T04:09:17;40.34;37.88;42.41;;
40465;Laerm;30489;48.982;8.394;2022-07-21T04:11:27;40.29;38.05;42.71;;
40465;Laerm;30489;48.982;8.394;2022-07-21T04:13:39;40.41;38.05;42.53;;
40465;Laerm;30489;48.982;8.394;2022-07-21T04:15:49;40.38;38.05;42.82;;
40465;Laerm;30489;48.982;8.394;2022-07-21T04:17:59;40.37;38.05;42.95;;
40465;Laerm;30489;48.982;8.394;2022-07-21T04:20:10;40.34;38.05;42.82;;
40465;Laerm;30489;48.982;8.394;2022-07-21T04:22:21;40.22;38.05;42.29;;
40465;Laerm;30489;48.982;8.394;2022-07-21T04:24:31;40.37;38.05;42.41;;
40465;Laerm;30489;48.982;8.394;2022-07-21T04:26:42;40.18;37.70;42.65;;
40465;Laerm;30489;48.982;8.394;2022-07-21T04:28:52;40.23;38.05;42.16;;
40465;Laerm;30489;48.982;8.394;2022-07-21T04:31:02;40.39;38.21;42.65;;
40465;Laerm;30489;48.982;8.394;2022-07-21T04:33:12;40.33;37.88;53.02;;
40465;Laerm;30489;48.982;8.394;2022-07-21T04:35:23;40.27;37.70;52.73;;
40465;Laerm;30489;48.982;8.394;2022-07-21T04:37:33;40.33;37.88;50.59;;
40465;Laerm;30489;48.982;8.394;2022-07-21T04:39:43;40.32;38.05;52.11;;
40465;Laerm;30489;48.982;8.394;2022-07-21T04:41:54;40.18;37.88;42.29;;
40465;Laerm;30489;48.982;8.394;2022-07-21T04:44:04;40.31;37.88;42.71;;
40465;Laerm;30489;48.982;8.394;2022-07-21T04:46:14;40.33;38.37;42.22;;
40465;Laerm;30489;48.982;8.394;2022-07-21T04:48:25;40.25;38.05;42.35;;
40465;Laerm;30489;48.982;8.394;2022-07-21T04:50:35;40.30;38.21;42.22;;
40465;Laerm;30489;48.982;8.394;2022-07-21T04:52:46;40.26;38.21;42.29;;
40465;Laerm;30489;48.982;8.394;2022-07-21T04:54:56;40.35;37.88;42.16;;
40465;Laerm;30489;48.982;8.394;2022-07-21T04:57:06;40.36;38.37;42.42;;
40465;Laerm;30489;48.982;8.394;2022-07-21T04:59:17;40.32;38.21;42.16;;
40465;Laerm;30489;48.982;8.394;2022-07-21T05:01:27;40.34;38.37;42.16;;
40465;Laerm;30489;48.982;8.394;2022-07-21T05:03:37;40.42;38.05;42.65;;
40465;Laerm;30489;48.982;8.394;2022-07-21T05:05:48;40.40;38.21;42.65;;
40465;Laerm;30489;48.982;8.394;2022-07-21T05:07:58;40.45;37.88;42.88;;
40465;Laerm;30489;48.982;8.394;2022-07-21T05:10:09;40.38;37.88;42.53;;
40465;Laerm;30489;48.982;8.394;2022-07-21T05:12:20;40.39;38.05;42.82;;
40465;Laerm;30489;48.982;8.394;2022-07-21T05:14:30;40.37;37.88;42.93;;
40465;Laerm;30489;48.982;8.394;2022-07-21T05:16:40;40.38;38.21;43.14;;
40465;Laerm;30489;48.982;8.394;2022-07-21T05:18:50;40.37;38.21;42.35;;
40465;Laerm;30489;48.982;8.394;2022-07-21T05:21:01;40.35;38.02;42.59;;
40465;Laerm;30489;48.982;8.394;2022-07-21T05:23:11;40.32;37.87;42.35;;
40465;Laerm;30489;48.982;8.394;2022-07-21T05:25:21;40.49;38.05;49.18;;
40465;Laerm;30489;48.982;8.394;2022-07-21T05:27:31;40.45;38.32;47.32;;
40465;Laerm;30489;48.982;8.394;2022-07-21T05:29:42;40.49;38.37;47.54;;
40465;Laerm;30489;48.982;8.394;2022-07-21T05:31:52;40.47;38.05;49.33;;
40465;Laerm;30489;48.982;8.394;2022-07-21T05:34:02;40.51;38.21;52.23;;
40465;Laerm;30489;48.982;8.394;2022-07-21T05:36:12;40.48;38.21;42.71;;
40465;Laerm;30489;48.982;8.394;2022-07-21T05:38:22;40.42;38.37;42.53;;
40465;Laerm;30489;48.982;8.394;2022-07-21T05:40:33;40.47;37.70;45.89;;
40465;Laerm;30489;48.982;8.394;2022-07-21T05:42:43;40.38;37.88;44.15;;
40465;Laerm;30489;48.982;8.394;2022-07-21T05:44:53;40.48;37.70;46.71;;
40465;Laerm;30489;48.982;8.394;2022-07-21T05:47:03;40.39;37.88;42.41;;
40465;Laerm;30489;48.982;8.394;2022-07-21T05:49:13;40.37;37.88;42.59;;
40465;Laerm;30489;48.982;8.394;2022-07-21T05:51:24;40.41;38.21;43.14;;
40465;Laerm;30489;48.982;8.394;2022-07-21T05:53:34;40.36;38.05;42.59;;
40465;Laerm;30489;48.982;8.394;2022-07-21T05:55:44;40.41;37.52;42.35;;
40465;Laerm;30489;48.982;8.394;2022-07-21T05:57:54;41.29;38.21;69.41;;
40465;Laerm;30489;48.982;8.394;2022-07-21T06:00:05;40.39;38.05;42.29;;
40465;Laerm;30489;48.982;8.394;2022-07-21T06:02:15;40.38;38.21;42.65;;
40465;Laerm;30489;48.982;8.394;2022-07-21T06:04:25;40.41;37.52;43.19;;
40465;Laerm;30489;48.982;8.394;2022-07-21T06:06:36;40.46;37.70;42.53;;
40465;Laerm;30489;48.982;8.394;2022-07-21T06:08:47;40.51;38.21;44.83;;
40465;Laerm;30489;48.982;8.394;2022-07-21T06:10:57;40.48;37.70;42.65;;
40465;Laerm;30489;48.982;8.394;2022-07-21T06:13:07;40.48;38.02;42.65;;
40465;Laerm;30489;48.982;8.394;2022-07-21T06:15:17;40.56;37.88;42.65;;
40465;Laerm;30489;48.982;8.394;2022-07-21T06:17:28;40.50;37.88;43.04;;
40465;Laerm;30489;48.982;8.394;2022-07-21T06:19:41;40.47;37.88;42.76;;
40465;Laerm;30489;48.982;8.394;2022-07-21T06:21:51;40.43;38.05;43.64;;
40465;Laerm;30489;48.982;8.394;2022-07-21T06:24:01;40.40;37.88;43.58;;
40465;Laerm;30489;48.982;8.394;2022-07-21T06:26:12;40.38;38.05;42.53;;
40465;Laerm;30489;48.982;8.394;2022-07-21T06:28:22;40.35;38.05;42.71;;
40465;Laerm;30489;48.982;8.394;2022-07-21T06:30:32;40.20;37.88;42.47;;
40465;Laerm;30489;48.982;8.394;2022-07-21T06:32:43;40.16;38.05;42.22;;
40465;Laerm;30489;48.982;8.394;2022-07-21T06:34:53;40.17;37.88;42.47;;
40465;Laerm;30489;48.982;8.394;2022-07-21T06:37:03;40.13;37.88;42.82;;
40465;Laerm;30489;48.982;8.394;2022-07-21T06:39:13;40.10;37.52;42.22;;
40465;Laerm;30489;48.982;8.394;2022-07-21T06:41:23;40.11;37.70;42.65;;
40465;Laerm;30489;48.982;8.394;2022-07-21T06:43:34;40.15;38.05;42.09;;
40465;Laerm;30489;48.982;8.394;2022-07-21T06:45:44;40.17;37.70;41.89;;
40465;Laerm;30489;48.982;8.394;2022-07-21T06:48:01;40.07;38.05;42.16;;
40465;Laerm;30489;48.982;8.394;2022-07-21T06:50:11;40.09;37.88;42.09;;
40465;Laerm;30489;48.982;8.394;2022-07-21T06:52:21;40.23;38.37;42.53;;
40465;Laerm;30489;48.982;8.394;2022-07-21T06:54:31;40.22;37.88;41.96;;
40465;Laerm;30489;48.982;8.394;2022-07-21T06:56:42;40.21;38.21;42.09;;
40465;Laerm;30489;48.982;8.394;2022-07-21T06:58:52;40.21;38.05;42.24;;
40465;Laerm;30489;48.982;8.394;2022-07-21T07:01:02;40.17;38.37;42.29;;
40465;Laerm;30489;48.982;8.394;2022-07-21T07:03:13;40.15;38.05;42.41;;
40465;Laerm;30489;48.982;8.394;2022-07-21T07:05:23;40.20;38.37;41.68;;
40465;Laerm;30489;48.982;8.394;2022-07-21T07:07:33;40.11;38.21;41.75;;
40465;Laerm;30489;48.982;8.394;2022-07-21T07:09:43;40.20;38.21;41.96;;
40465;Laerm;30489;48.982;8.394;2022-07-21T07:11:54;40.21;38.05;41.82;;
40465;Laerm;30489;48.982;8.394;2022-07-21T07:14:05;40.17;38.21;41.89;;
40465;Laerm;30489;48.982;8.394;2022-07-21T07:16:15;40.19;38.37;41.68;;
40465;Laerm;30489;48.982;8.394;2022-07-21T07:18:25;40.21;38.37;41.89;;
40465;Laerm;30489;48.982;8.394;2022-07-21T07:20:36;40.21;38.32;41.75;;
40465;Laerm;30489;48.982;8.394;2022-07-21T07:22:46;40.23;38.52;42.09;;
40465;Laerm;30489;48.982;8.394;2022-07-21T07:24:56;40.27;38.47;42.16;;
40465;Laerm;30489;48.982;8.394;2022-07-21T07:27:07;40.22;38.18;41.75;;
40465;Laerm;30489;48.982;8.394;2022-07-21T07:29:17;40.24;38.21;41.75;;
40465;Laerm;30489;48.982;8.394;2022-07-21T07:31:27;40.25;38.37;41.75;;
40465;Laerm;30489;48.982;8.394;2022-07-21T07:33:37;40.19;38.37;41.75;;
40465;Laerm;30489;48.982;8.394;2022-07-21T07:35:47;40.23;38.67;41.82;;
40465;Laerm;30489;48.982;8.394;2022-07-21T07:37:58;40.29;38.52;41.75;;
40465;Laerm;30489;48.982;8.394;2022-07-21T07:40:09;40.33;38.67;41.89;;
40465;Laerm;30489;48.982;8.394;2022-07-21T07:42:20;40.38;38.67;41.75;;
40465;Laerm;30489;48.982;8.394;2022-07-21T07:44:30;40.43;38.95;43.19;;
40465;Laerm;30489;48.982;8.394;2022-07-21T07:46:41;40.56;38.81;42.00;;
40465;Laerm;30489;48.982;8.394;2022-07-21T07:48:51;40.58;38.52;42.16;;
40465;Laerm;30489;48.982;8.394;2022-07-21T07:51:01;40.60;38.95;41.96;;
40465;Laerm;30489;48.982;8.394;2022-07-21T07:53:11;40.61;38.67;42.47;;
40465;Laerm;30489;48.982;8.394;2022-07-21T07:55:22;40.61;38.95;42.16;;
40465;Laerm;30489;48.982;8.394;2022-07-21T07:57:32;40.64;38.37;42.09;;
40465;Laerm;30489;48.982;8.394;2022-07-21T07:59:43;40.59;39.21;41.96;;
40465;Laerm;30489;48.982;8.394;2022-07-21T08:01:53;40.56;38.52;41.82;;
40465;Laerm;30489;48.982;8.394;2022-07-21T08:04:03;40.59;38.81;41.96;;
40465;Laerm;30489;48.982;8.394;2022-07-21T08:06:13;40.60;38.95;42.03;;
40465;Laerm;30489;48.982;8.394;2022-07-21T08:08:24;40.62;39.08;42.03;;
40465;Laerm;30489;48.982;8.394;2022-07-21T08:10:34;40.64;38.95;42.29;;
40465;Laerm;30489;48.982;8.394;2022-07-21T08:12:44;40.68;39.21;42.03;;
40465;Laerm;30489;48.982;8.394;2022-07-21T08:14:54;40.71;39.21;42.03;;
40465;Laerm;30489;48.982;8.394;2022-07-21T08:17:05;40.76;39.08;42.03;;
40465;Laerm;30489;48.982;8.394;2022-07-21T08:19:15;40.87;39.46;42.09;;
40465;Laerm;30489;48.982;8.394;2022-07-21T08:21:25;40.84;38.95;42.35;;
40465;Laerm;30489;48.982;8.394;2022-07-21T08:23:40;40.86;39.46;42.22;;
40465;Laerm;30489;48.982;8.394;2022-07-21T08:25:50;40.86;39.21;42.09;;
40465;Laerm;30489;48.982;8.394;2022-07-21T08:28:00;40.84;39.34;42.03;;
40465;Laerm;30489;48.982;8.394;2022-07-21T08:30:11;40.81;39.46;42.16;;
40465;Laerm;30489;48.982;8.394;2022-07-21T08:32:21;40.79;39.21;42.29;;
40465;Laerm;30489;48.982;8.394;2022-07-21T08:34:31;40.85;39.34;46.76;;
40465;Laerm;30489;48.982;8.394;2022-07-21T08:36:41;40.85;39.34;42.03;;
40465;Laerm;30489;48.982;8.394;2022-07-21T08:38:51;40.83;39.21;44.43;;
40465;Laerm;30489;48.982;8.394;2022-07-21T08:41:02;40.81;39.21;44.23;;
40465;Laerm;30489;48.982;8.394;2022-07-21T08:43:12;40.84;39.21;43.14;;
40465;Laerm;30489;48.982;8.394;2022-07-21T08:45:24;40.81;39.21;42.09;;
40465;Laerm;30489;48.982;8.394;2022-07-21T08:47:34;40.76;39.08;42.03;;
40465;Laerm;30489;48.982;8.394;2022-07-21T08:49:45;40.75;39.08;42.93;;
40465;Laerm;30489;48.982;8.394;2022-07-21T08:51:56;40.75;38.95;41.96;;
40465;Laerm;30489;48.982;8.394;2022-07-21T08:54:06;40.71;39.21;46.22;;
40465;Laerm;30489;48.982;8.394;2022-07-21T08:56:16;40.77;39.34;42.29;;
40465;Laerm;30489;48.982;8.394;2022-07-21T08:58:26;40.84;39.08;42.29;;
40465;Laerm;30489;48.982;8.394;2022-07-21T09:00:37;40.87;39.34;42.29;;
40465;Laerm;30489;48.982;8.394;2022-07-21T09:02:49;40.97;39.21;42.22;;
40465;Laerm;30489;48.982;8.394;2022-07-21T09:04:59;40.97;39.46;42.22;;
40465;Laerm;30489;48.982;8.394;2022-07-21T09:07:10;40.97;39.34;42.29;;
40465;Laerm;30489;48.982;8.394;2022-07-21T09:09:21;41.02;39.34;42.29;;
40465;Laerm;30489;48.982;8.394;2022-07-21T09:11:31;41.10;39.58;42.29;;
40465;Laerm;30489;48.982;8.394;2022-07-21T09:13:44;41.19;39.81;42.41;;
40465;Laerm;30489;48.982;8.394;2022-07-21T09:15:55;41.17;39.70;42.53;;
40465;Laerm;30489;48.982;8.394;2022-07-21T09:20:24;41.38;39.92;42.71;;
40465;Laerm;30489;48.982;8.394;2022-07-21T09:22:35;41.45;40.13;43.19;;
40465;Laerm;30489;48.982;8.394;2022-07-21T09:24:48;41.55;40.13;42.71;;
40465;Laerm;30489;48.982;8.394;2022-07-21T09:27:03;41.69;40.23;42.76;;
40465;Laerm;30489;48.982;8.394;2022-07-21T09:29:14;41.71;40.43;42.65;;
40465;Laerm;30489;48.982;8.394;2022-07-21T09:31:24;41.65;40.43;42.76;;
40465;Laerm;30489;48.982;8.394;2022-07-21T09:33:38;41.66;40.33;42.76;;
40465;Laerm;30489;48.982;8.394;2022-07-21T09:35:59;41.67;40.03;42.65;;
40465;Laerm;30489;48.982;8.394;2022-07-21T09:38:12;41.75;40.53;44.27;;
40465;Laerm;30489;48.982;8.394;2022-07-21T09:40:23;41.77;40.53;42.88;;
40465;Laerm;30489;48.982;8.394;2022-07-21T09:42:34;41.71;40.43;42.82;;
40465;Laerm;30489;48.982;8.394;2022-07-21T09:44:46;41.70;40.33;42.88;;
40465;Laerm;30489;48.982;8.394;2022-07-21T09:47:10;41.72;40.45;42.93;;
40465;Laerm;30489;48.982;8.394;2022-07-21T09:49:26;41.70;39.92;42.76;;
40465;Laerm;30489;48.982;8.394;2022-07-21T09:51:40;41.74;40.43;42.90;;
40465;Laerm;30489;48.982;8.394;2022-07-21T09:56:03;41.77;40.62;42.82;;
40465;Laerm;30489;48.982;8.394;2022-07-21T09:58:14;41.74;40.53;42.88;;
40465;Laerm;30489;48.982;8.394;2022-07-21T10:00:24;41.76;40.53;42.71;;
40465;Laerm;30489;48.982;8.394;2022-07-21T10:02:35;41.77;40.53;43.44;;
40465;Laerm;30489;48.982;8.394;2022-07-21T10:04:46;41.69;40.43;42.93;;
40465;Laerm;30489;48.982;8.394;2022-07-21T10:06:58;41.73;40.43;42.88;;
40465;Laerm;30489;48.982;8.394;2022-07-21T10:09:09;41.86;40.53;43.04;;
40465;Laerm;30489;48.982;8.394;2022-07-21T10:11:19;41.84;40.53;43.14;;
40465;Laerm;30489;48.982;8.394;2022-07-21T10:13:29;41.80;40.33;42.98;;
40465;Laerm;30489;48.982;8.394;2022-07-21T10:15:40;41.91;40.62;43.14;;
40465;Laerm;30489;48.982;8.394;2022-07-21T10:17:50;41.98;40.71;43.19;;
40465;Laerm;30489;48.982;8.394;2022-07-21T10:22:22;42.05;40.79;42.98;;
40465;Laerm;30489;48.982;8.394;2022-07-21T10:24:35;42.13;41.06;43.68;;
40465;Laerm;30489;48.982;8.394;2022-07-21T10:27:05;42.06;40.71;44.62;;
40465;Laerm;30489;48.982;8.394;2022-07-21T10:29:47;42.05;40.53;45.66;;
40465;Laerm;30489;48.982;8.394;2022-07-21T10:31:46;42.11;40.89;43.19;;
40465;Laerm;30489;48.982;8.394;2022-07-21T10:33:57;42.18;40.98;43.19;;
40465;Laerm;30489;48.982;8.394;2022-07-21T10:36:08;42.16;40.80;45.42;;
40465;Laerm;30489;48.982;8.394;2022-07-21T10:38:29;42.20;40.89;43.19;;
40465;Laerm;30489;48.982;8.394;2022-07-21T10:40:39;42.19;40.98;43.19;;
40465;Laerm;30489;48.982;8.394;2022-07-21T10:45:25;42.21;40.80;43.24;;
40465;Laerm;30489;48.982;8.394;2022-07-21T10:47:39;42.22;40.89;43.34;;
40465;Laerm;30489;48.982;8.394;2022-07-21T10:49:57;42.22;41.06;43.37;;
40465;Laerm;30489;48.982;8.394;2022-07-21T10:54:37;42.22;40.98;44.15;;
40465;Laerm;30489;48.982;8.394;2022-07-21T10:56:47;42.23;40.89;44.15;;
40465;Laerm;30489;48.982;8.394;2022-07-21T10:58:58;42.23;40.98;43.58;;
40465;Laerm;30489;48.982;8.394;2022-07-21T11:03:37;42.22;40.98;46.76;;
40465;Laerm;30489;48.982;8.394;2022-07-21T11:08:18;42.24;40.89;47.02;;
40465;Laerm;30489;48.982;8.394;2022-07-21T11:10:30;42.22;40.89;45.39;;
40465;Laerm;30489;48.982;8.394;2022-07-21T11:13:03;42.19;40.98;43.29;;
40465;Laerm;30489;48.982;8.394;2022-07-21T11:15:58;42.21;40.80;44.83;;
40465;Laerm;30489;48.982;8.394;2022-07-21T11:17:42;42.20;40.80;43.24;;
40465;Laerm;30489;48.982;8.394;2022-07-21T11:19:53;42.20;40.80;43.29;;
40465;Laerm;30489;48.982;8.394;2022-07-21T11:22:05;42.20;40.96;43.24;;
40465;Laerm;30489;48.982;8.394;2022-07-21T11:24:19;42.25;40.62;44.76;;
40465;Laerm;30489;48.982;8.394;2022-07-21T11:26:29;42.20;40.98;44.58;;
40465;Laerm;30489;48.982;8.394;2022-07-21T11:28:40;42.19;40.89;43.72;;
40465;Laerm;30489;48.982;8.394;2022-07-21T11:31:04;42.22;40.89;43.44;;
40465;Laerm;30489;48.982;8.394;2022-07-21T11:33:20;42.22;40.89;46.15;;
40465;Laerm;30489;48.982;8.394;2022-07-21T11:35:30;42.23;41.06;46.62;;
40465;Laerm;30489;48.982;8.394;2022-07-21T11:37:46;42.22;41.06;44.54;;
40465;Laerm;30489;48.982;8.394;2022-07-21T11:39:57;42.23;40.80;44.69;;
40465;Laerm;30489;48.982;8.394;2022-07-21T11:42:12;42.25;41.06;47.38;;
40465;Laerm;30489;48.982;8.394;2022-07-21T11:44:24;42.25;40.98;44.11;;
40465;Laerm;30489;48.982;8.394;2022-07-21T11:46:51;42.23;40.89;43.34;;
40465;Laerm;30489;48.982;8.394;2022-07-21T11:49:02;42.24;40.98;43.29;;
40465;Laerm;30489;48.982;8.394;2022-07-21T11:51:12;42.25;40.80;47.59;;
40465;Laerm;30489;48.982;8.394;2022-07-21T11:53:23;42.23;40.98;44.19;;
40465;Laerm;30489;48.982;8.394;2022-07-21T11:55:33;42.23;40.89;44.11;;
40465;Laerm;30489;48.982;8.394;2022-07-21T11:57:44;42.22;40.98;43.68;;
40465;Laerm;30489;48.982;8.394;2022-07-21T11:59:55;42.20;40.98;43.63;;
40465;Laerm;30489;48.982;8.394;2022-07-21T12:02:06;42.22;41.06;43.34;;
40465;Laerm;30489;48.982;8.394;2022-07-21T12:04:37;42.20;40.80;43.19;;
40465;Laerm;30489;48.982;8.394;2022-07-21T12:06:47;42.20;40.89;43.39;;
40465;Laerm;30489;48.982;8.394;2022-07-21T12:08:57;42.22;40.80;43.29;;
40465;Laerm;30489;48.982;8.394;2022-07-21T12:11:08;42.22;40.80;43.39;;
40465;Laerm;30489;48.982;8.394;2022-07-21T12:13:20;42.20;40.98;43.29;;
40465;Laerm;30489;48.982;8.394;2022-07-21T12:15:32;42.17;40.71;43.34;;
40465;Laerm;30489;48.982;8.394;2022-07-21T12:17:44;42.17;40.71;43.34;;
40465;Laerm;30489;48.982;8.394;2022-07-21T12:19:55;42.18;40.98;48.32;;
40465;Laerm;30489;48.982;8.394;2022-07-21T12:22:06;42.14;40.89;43.39;;
40465;Laerm;30489;48.982;8.394;2022-07-21T12:24:17;42.17;40.80;46.05;;
40465;Laerm;30489;48.982;8.394;2022-07-21T12:26:27;42.24;40.98;49.07;;
40465;Laerm;30489;48.982;8.394;2022-07-21T12:28:45;42.17;40.98;43.39;;
40465;Laerm;30489;48.982;8.394;2022-07-21T12:30:56;42.14;40.80;43.29;;